Time;durP1;ratioP1;P1;durP2;ratioP2;P2;SDS_P1;SDS_P2;PMS_P1;PMS_P2;Temp;Humidity;BMP_temperature;BMP_pressure;BME280_temperature;BME280_humidity;BME280_pressure;Samples;Min_cycle;Max_cycle;Signal;HPM_P1;HPM_P2
2021/06/03 00:00:38;;;;;;;9.57;6.25;;;21.90;78.70;;;;;;5039056;28;20041;-88
2021/06/03 00:03:04;;;;;;;;;;;21.80;78.60;;;;;;5054849;28;20057;-89
2021/06/03 00:05:34;;;;;;;8.55;6.00;;;21.70;77.30;;;;;;5054544;28;20402;-88
2021/06/03 00:07:59;;;;;;;8.68;6.65;;;21.60;79.00;;;;;;5053852;28;20052;-87
2021/06/03 00:10:28;;;;;;;8.70;6.55;;;21.60;79.20;;;;;;5055352;28;20053;-88
2021/06/03 00:12:55;;;;;;;7.97;6.55;;;21.60;79.10;;;;;;5055357;28;20091;-88
2021/06/03 00:15:22;;;;;;;8.45;6.28;;;21.50;79.20;;;;;;5054237;28;20072;-88
2021/06/03 00:17:47;;;;;;;7.55;6.38;;;21.50;79.10;;;;;;5055875;28;20045;-88
2021/06/03 00:20:17;;;;;;;9.23;5.95;;;21.50;79.30;;;;;;5052584;28;20122;-88
2021/06/03 00:22:43;;;;;;;8.40;6.50;;;21.40;79.10;;;;;;5054101;28;20048;-89
2021/06/03 00:25:09;;;;;;;9.93;6.50;;;21.40;79.30;;;;;;5053928;28;20127;-88
2021/06/03 00:27:35;;;;;;;7.95;6.50;;;21.30;79.60;;;;;;5051859;28;20087;-87
2021/06/03 00:30:03;;;;;;;8.57;6.47;;;21.30;79.60;;;;;;5034027;28;20053;-87
2021/06/03 00:32:29;;;;;;;9.77;6.80;;;21.30;79.60;;;;;;5034094;28;20054;-87
2021/06/03 00:34:54;;;;;;;8.70;6.63;;;21.20;79.40;;;;;;5032841;28;20064;-87
2021/06/03 00:37:20;;;;;;;8.43;6.43;;;21.20;79.60;;;;;;5047594;28;20144;-86
2021/06/03 00:39:46;;;;;;;8.18;6.55;;;21.10;79.50;;;;;;5053707;28;20053;-87
2021/06/03 00:42:12;;;;;;;7.55;6.15;;;21.10;79.80;;;;;;5052943;28;20053;-86
2021/06/03 00:44:38;;;;;;;8.68;7.03;;;21.10;79.60;;;;;;5053597;28;20045;-86
2021/06/03 00:47:05;;;;;;;9.35;6.85;;;21.00;79.40;;;;;;5053300;28;20045;-87
2021/06/03 00:49:30;;;;;;;9.02;6.97;;;21.00;79.50;;;;;;5053021;28;20123;-87
2021/06/03 00:51:56;;;;;;;9.70;7.15;;;21.00;79.80;;;;;;5053367;28;20510;-87
2021/06/03 00:54:22;;;;;;;9.95;6.90;;;20.90;79.80;;;;;;5052860;28;20080;-87
2021/06/03 00:56:48;;;;;;;10.02;6.95;;;20.90;79.70;;;;;;5053350;28;20131;-87
2021/06/03 00:59:14;;;;;;;9.15;6.97;;;20.90;79.80;;;;;;5053665;28;20443;-87
2021/06/03 01:01:39;;;;;;;9.93;6.75;;;20.80;79.90;;;;;;5053241;28;20140;-87
2021/06/03 01:04:07;;;;;;;10.55;6.50;;;20.80;79.80;;;;;;5052401;28;20049;-87
2021/06/03 01:06:33;;;;;;;9.18;6.60;;;20.80;79.80;;;;;;5052801;28;20071;-87
2021/06/03 01:09:12;;;;;;;9.75;7.70;;;20.70;80.20;;;;;;5053139;28;20041;-87
2021/06/03 01:11:52;;;;;;;8.68;6.68;;;20.70;78.70;;;;;;5052621;28;20075;-87
2021/06/03 01:14:24;;;;;;;12.02;7.10;;;20.60;78.80;;;;;;5053493;28;20056;-87
2021/06/03 01:16:53;;;;;;;11.32;6.82;;;20.60;79.50;;;;;;5052504;28;20057;-87
2021/06/03 01:19:24;;;;;;;9.10;6.70;;;20.60;79.40;;;;;;5053569;28;20049;-86
2021/06/03 01:21:57;;;;;;;9.45;7.18;;;20.50;79.80;;;;;;5052729;28;20057;-87
2021/06/03 01:24:27;;;;;;;9.20;6.53;;;20.40;79.90;;;;;;5052656;28;20504;-87
2021/06/03 01:26:57;;;;;;;8.93;6.60;;;20.40;79.90;;;;;;5033354;28;20527;-87
2021/06/03 01:29:24;;;;;;;8.80;6.95;;;20.40;80.50;;;;;;5033087;28;20512;-87
2021/06/03 01:31:52;;;;;;;8.30;6.60;;;20.30;80.50;;;;;;5032517;28;20406;-87
2021/06/03 01:34:20;;;;;;;8.88;6.30;;;20.30;80.00;;;;;;5033077;28;20555;-87
2021/06/03 01:36:47;;;;;;;9.70;6.55;;;20.30;80.00;;;;;;5032943;28;20496;-87
2021/06/03 01:39:13;;;;;;;8.40;6.63;;;20.30;80.40;;;;;;5032199;28;20045;-87
2021/06/03 01:41:39;;;;;;;11.35;7.43;;;20.20;80.50;;;;;;5032673;28;20173;-87
2021/06/03 01:44:08;;;;;;;8.73;6.63;;;20.20;79.30;;;;;;5032658;28;20041;-87
2021/06/03 01:46:35;;;;;;;10.07;6.50;;;20.10;79.00;;;;;;5050958;28;20060;-87
2021/06/03 01:49:02;;;;;;;9.82;7.03;;;20.10;79.50;;;;;;5044055;28;20512;-87
2021/06/03 01:51:28;;;;;;;8.38;6.53;;;20.10;78.70;;;;;;5033725;28;20049;-87
2021/06/03 01:53:54;;;;;;;9.15;6.43;;;20.00;79.70;;;;;;5032432;28;20140;-87
2021/06/03 01:56:20;;;;;;;8.85;6.93;;;20.00;80.00;;;;;;5029201;28;20041;-86
2021/06/03 01:58:47;;;;;;;8.85;6.45;;;20.00;79.90;;;;;;5032371;28;20128;-86
2021/06/03 02:01:13;;;;;;;8.77;6.50;;;20.00;80.20;;;;;;5032551;28;20524;-87
2021/06/03 02:03:39;;;;;;;8.77;6.78;;;19.90;80.20;;;;;;5032950;28;20053;-87
2021/06/03 02:06:06;;;;;;;9.52;6.82;;;19.90;80.40;;;;;;5033241;28;20056;-88
2021/06/03 02:08:33;;;;;;;9.10;6.72;;;19.90;80.40;;;;;;5036786;28;20513;-87
2021/06/03 02:10:59;;;;;;;8.25;6.93;;;19.90;80.80;;;;;;5036281;28;20045;-87
2021/06/03 02:13:35;;;;;;;9.55;6.68;;;19.80;80.40;;;;;;5035830;28;20053;-86
2021/06/03 02:16:11;;;;;;;9.02;6.63;;;19.80;80.60;;;;;;5036556;28;20069;-86
2021/06/03 02:18:49;;;;;;;9.68;6.60;;;19.80;80.80;;;;;;5036634;28;20072;-87
2021/06/03 02:21:16;;;;;;;8.63;6.72;;;19.70;80.80;;;;;;5035320;28;20053;-86
2021/06/03 02:23:44;;;;;;;10.30;7.03;;;19.70;81.00;;;;;;5036461;28;20052;-86
2021/06/03 02:26:10;;;;;;;8.35;6.70;;;19.70;79.80;;;;;;5036153;28;20397;-86
2021/06/03 02:28:36;;;;;;;8.77;6.90;;;19.70;80.40;;;;;;5035697;28;20049;-87
2021/06/03 02:31:03;;;;;;;8.38;6.95;;;19.60;80.90;;;;;;5036132;28;20046;-87
2021/06/03 02:33:29;;;;;;;7.47;6.32;;;19.60;81.20;;;;;;5055543;28;20488;-87
2021/06/03 02:35:55;;;;;;;10.20;7.70;;;19.60;81.10;;;;;;5055080;28;20110;-87
2021/06/03 02:38:32;;;;;;;10.80;7.32;;;19.50;78.90;;;;;;5056126;28;20444;-87
2021/06/03 02:41:00;;;;;;;9.00;6.63;;;19.50;79.60;;;;;;5055023;28;20049;-87
2021/06/03 02:43:28;;;;;;;9.93;7.22;;;19.40;80.50;;;;;;5056024;28;20075;-87
2021/06/03 02:45:54;;;;;;;8.82;6.78;;;19.40;80.70;;;;;;5042090;28;20444;-87
2021/06/03 02:48:20;;;;;;;9.20;7.40;;;19.30;80.70;;;;;;5035239;28;20058;-87
2021/06/03 02:50:47;;;;;;;10.23;7.00;;;19.30;80.40;;;;;;5035859;28;20458;-87
2021/06/03 02:53:13;;;;;;;8.95;6.85;;;19.30;80.50;;;;;;5035710;28;20053;-88
2021/06/03 02:55:39;;;;;;;8.57;6.85;;;19.30;81.10;;;;;;5034952;28;20049;-87
2021/06/03 02:58:06;;;;;;;11.02;7.60;;;19.20;81.00;;;;;;5035651;28;20103;-86
2021/06/03 03:00:33;;;;;;;9.10;6.68;;;19.20;79.90;;;;;;5035759;28;20084;-87
2021/06/03 03:03:00;;;;;;;9.02;7.38;;;19.20;79.70;;;;;;5034657;28;20459;-87
2021/06/03 03:05:26;;;;;;;10.40;7.60;;;19.10;79.30;;;;;;5036031;28;20080;-87
2021/06/03 03:07:53;;;;;;;9.80;6.97;;;19.10;79.20;;;;;;5035609;28;20136;-87
2021/06/03 03:10:25;;;;;;;8.57;7.55;;;19.10;79.40;;;;;;5035126;28;20052;-87
2021/06/03 03:12:51;;;;;;;9.57;7.30;;;19.00;80.10;;;;;;5035686;28;20072;-87
2021/06/03 03:15:19;;;;;;;13.55;7.57;;;19.00;79.70;;;;;;5035261;28;20472;-87
2021/06/03 03:17:45;;;;;;;9.88;6.90;;;19.00;79.10;;;;;;5033809;28;20056;-86
2021/06/03 03:20:13;;;;;;;12.77;8.38;;;18.90;79.70;;;;;;5035153;28;20449;-87
2021/06/03 03:22:41;;;;;;;11.82;8.07;;;18.90;78.50;;;;;;5035976;28;20068;-87
2021/06/03 03:25:09;;;;;;;10.15;7.63;;;18.90;77.80;;;;;;5034574;28;20049;-87
2021/06/03 03:27:35;;;;;;;11.07;7.72;;;18.80;78.50;;;;;;5041183;28;20493;-87
2021/06/03 03:30:02;;;;;;;9.45;7.45;;;18.80;78.10;;;;;;5054280;28;20183;-87
2021/06/03 03:32:28;;;;;;;9.25;7.57;;;18.80;79.60;;;;;;5055445;28;20442;-88
2021/06/03 03:34:54;;;;;;;9.20;7.15;;;18.70;80.70;;;;;;5054755;28;20140;-87
2021/06/03 03:37:19;;;;;;;10.60;7.30;;;18.70;80.60;;;;;;5053835;28;20111;-87
2021/06/03 03:39:48;;;;;;;9.23;6.97;;;18.70;80.20;;;;;;5055125;28;20048;-87
2021/06/03 03:42:13;;;;;;;8.35;6.53;;;18.70;80.50;;;;;;5054175;28;20393;-87
2021/06/03 03:44:39;;;;;;;9.38;7.47;;;18.70;81.00;;;;;;5053352;28;20134;-87
2021/06/03 03:47:06;;;;;;;11.07;7.43;;;18.70;80.70;;;;;;5054323;28;20091;-87
2021/06/03 03:49:32;;;;;;;9.60;7.10;;;18.70;80.70;;;;;;5054744;28;20056;-87
2021/06/03 03:52:00;;;;;;;12.95;6.90;;;18.60;79.10;;;;;;5053789;28;20053;-87
2021/06/03 03:54:26;;;;;;;10.18;6.63;;;18.60;79.50;;;;;;5054611;28;20154;-86
2021/06/03 03:56:54;;;;;;;9.85;6.63;;;18.60;79.50;;;;;;5053612;28;20106;-87
2021/06/03 03:59:20;;;;;;;9.15;6.53;;;18.60;79.20;;;;;;5033710;28;20053;-86
2021/06/03 04:01:47;;;;;;;10.15;6.32;;;18.60;78.90;;;;;;5034722;28;20052;-86
2021/06/03 04:04:12;;;;;;;8.13;5.97;;;18.60;78.50;;;;;;5035538;28;20057;-86
2021/06/03 04:06:39;;;;;;;12.00;6.82;;;18.60;79.00;;;;;;5034015;28;20132;-87
2021/06/03 04:09:05;;;;;;;10.18;5.85;;;18.60;79.50;;;;;;5016418;28;20057;-86
2021/06/03 04:11:31;;;;;;;11.20;6.25;;;18.50;79.20;;;;;;5034509;28;20107;-87
2021/06/03 04:13:57;;;;;;;9.80;6.43;;;18.50;79.30;;;;;;5033475;28;20400;-86
2021/06/03 04:16:23;;;;;;;8.98;5.50;;;18.60;79.20;;;;;;5034666;28;20069;-86
2021/06/03 04:18:48;;;;;;;8.55;6.10;;;18.50;78.60;;;;;;5034427;28;20430;-86
2021/06/03 04:21:14;;;;;;;7.00;5.82;;;18.50;79.10;;;;;;5033028;28;20128;-87
2021/06/03 04:23:40;;;;;;;9.52;5.78;;;18.50;79.10;;;;;;5042944;28;20077;-86
2021/06/03 04:26:06;;;;;;;8.82;5.68;;;18.50;78.80;;;;;;5054020;28;20044;-86
2021/06/03 04:28:32;;;;;;;8.38;5.57;;;18.60;79.00;;;;;;5053324;28;20450;-86
2021/06/03 04:30:58;;;;;;;10.32;5.30;;;18.60;79.10;;;;;;5053783;28;20519;-86
2021/06/03 04:33:24;;;;;;;9.80;5.75;;;18.50;78.90;;;;;;5053305;28;20076;-86
2021/06/03 04:35:51;;;;;;;8.68;5.50;;;18.50;78.60;;;;;;5053881;28;20412;-86
2021/06/03 04:38:17;;;;;;;7.90;5.00;;;18.60;78.50;;;;;;5053874;28;20059;-86
2021/06/03 04:40:42;;;;;;;8.80;5.22;;;18.60;78.50;;;;;;5053150;28;20079;-86
2021/06/03 04:43:09;;;;;;;7.78;5.47;;;18.60;78.30;;;;;;5045975;28;20485;-86
2021/06/03 04:45:36;;;;;;;7.47;5.40;;;18.60;78.20;;;;;;5033530;28;20054;-86
2021/06/03 04:48:07;;;;;;;8.35;5.50;;;18.60;79.20;;;;;;5032782;28;20068;-86
2021/06/03 04:50:34;;;;;;;10.00;5.65;;;18.60;79.60;;;;;;5046281;28;20488;-87
2021/06/03 04:53:04;;;;;;;6.90;5.13;;;18.60;79.80;;;;;;5052889;28;20075;-86
2021/06/03 04:55:30;;;;;;;7.38;4.75;;;18.60;79.90;;;;;;5052695;28;20045;-87
2021/06/03 04:57:57;;;;;;;8.55;5.13;;;18.60;79.30;;;;;;5053479;28;20063;-87
2021/06/03 05:00:30;;;;;;;7.05;5.15;;;18.60;79.10;;;;;;5050954;28;20041;-87
2021/06/03 05:02:57;;;;;;;8.10;5.53;;;18.60;79.50;;;;;;5032059;28;20053;-87
2021/06/03 05:05:23;;;;;;;7.93;4.85;;;18.60;79.20;;;;;;5031925;28;20046;-85
2021/06/03 05:07:50;;;;;;;8.88;5.30;;;18.60;79.80;;;;;;5032991;28;20049;-86
2021/06/03 05:10:17;;;;;;;9.02;4.97;;;18.60;79.40;;;;;;5032131;28;20095;-87
2021/06/03 05:12:43;;;;;;;9.93;5.20;;;18.60;80.00;;;;;;5032627;28;20127;-88
2021/06/03 05:15:10;;;;;;;7.32;5.35;;;18.70;79.50;;;;;;5032503;28;20428;-87
2021/06/03 05:17:36;;;;;;;7.35;4.75;;;18.70;79.80;;;;;;5032204;28;20477;-86
2021/06/03 05:20:07;;;;;;;6.82;4.72;;;18.70;80.30;;;;;;5032528;28;20110;-87
2021/06/03 05:22:33;;;;;;;7.28;4.43;;;18.70;80.00;;;;;;5031805;28;20046;-86
2021/06/03 05:24:59;;;;;;;8.55;4.82;;;18.70;79.60;;;;;;5032674;28;20083;-86
2021/06/03 05:27:25;;;;;;;8.18;5.30;;;18.70;79.80;;;;;;5032500;28;20049;-87
2021/06/03 05:29:50;;;;;;;6.78;4.72;;;18.70;79.60;;;;;;5031991;28;20057;-86
2021/06/03 05:32:16;;;;;;;10.50;4.72;;;18.70;79.50;;;;;;5032204;28;20557;-86
2021/06/03 05:34:42;;;;;;;7.95;4.60;;;18.70;79.40;;;;;;5032570;28;20049;-86
2021/06/03 05:37:07;;;;;;;7.78;4.70;;;18.70;79.40;;;;;;5031473;28;20069;-87
2021/06/03 05:39:33;;;;;;;7.38;4.57;;;18.80;79.90;;;;;;5032502;28;20053;-87
2021/06/03 05:42:00;;;;;;;9.27;4.75;;;18.80;79.80;;;;;;5035237;28;20079;-85
2021/06/03 05:44:26;;;;;;;8.20;4.53;;;18.80;79.90;;;;;;5036012;28;20052;-84
2021/06/03 05:46:52;;;;;;;7.93;4.80;;;18.80;79.80;;;;;;5036313;28;20443;-83
2021/06/03 05:49:18;;;;;;;9.63;4.60;;;18.90;79.80;;;;;;5036166;28;20048;-86
2021/06/03 05:51:44;;;;;;;10.85;4.22;;;18.90;79.70;;;;;;5037073;28;20061;-90
2021/06/03 05:54:11;;;;;;;6.22;4.38;;;18.90;79.50;;;;;;5037205;28;20046;-89
2021/06/03 05:56:37;;;;;;;8.45;4.43;;;19.00;79.70;;;;;;5037345;28;20080;-89
2021/06/03 05:59:03;;;;;;;8.35;4.75;;;19.00;79.70;;;;;;5036276;28;20452;-86
2021/06/03 06:01:29;;;;;;;7.43;4.75;;;19.00;79.70;;;;;;5035291;28;20524;-87
2021/06/03 06:06:31;;;;;;;7.78;4.50;;;19.10;79.70;;;;;;5032366;28;20065;-86
2021/06/03 06:08:59;;;;;;;7.90;4.60;;;19.10;79.40;;;;;;5035211;28;20053;-85
2021/06/03 06:11:29;;;;;;;9.82;4.65;;;19.20;79.50;;;;;;5035541;28;20076;-83
2021/06/03 06:13:56;;;;;;;8.40;4.53;;;19.20;79.50;;;;;;5035208;28;20069;-82
2021/06/03 06:16:22;;;;;;;10.35;4.65;;;19.20;79.60;;;;;;5036151;28;20076;-83
2021/06/03 06:18:47;;;;;;;9.93;4.35;;;19.30;79.40;;;;;;5035653;28;20077;-84
2021/06/03 06:21:21;;;;;;;9.63;4.70;;;19.30;79.20;;;;;;5036416;28;20053;-81
2021/06/03 06:23:48;;;;;;;6.65;4.63;;;19.30;79.10;;;;;;5036913;28;20056;-83
2021/06/03 06:26:14;;;;;;;8.65;4.38;;;19.40;79.20;;;;;;5034974;28;20141;-83
2021/06/03 06:28:43;;;;;;;8.57;4.53;;;19.50;79.30;;;;;;5036033;28;20144;-83
2021/06/03 06:31:09;;;;;;;8.52;4.90;;;19.50;79.10;;;;;;5018419;28;20512;-82
2021/06/03 06:33:37;;;;;;;7.78;4.55;;;19.60;79.10;;;;;;5035257;28;20053;-82
2021/06/03 06:36:04;;;;;;;11.43;4.95;;;19.60;79.10;;;;;;5035974;28;20128;-81
2021/06/03 06:38:30;;;;;;;6.28;4.20;;;19.60;79.10;;;;;;5036091;28;20052;-81
2021/06/03 06:40:56;;;;;;;10.48;4.60;;;19.70;79.10;;;;;;5035036;28;20512;-81
2021/06/03 06:43:22;;;;;;;11.02;4.65;;;19.70;78.90;;;;;;5035925;28;20054;-82
2021/06/03 06:45:49;;;;;;;8.98;5.05;;;19.70;78.90;;;;;;5035668;28;20052;-82
2021/06/03 06:48:17;;;;;;;8.60;4.78;;;19.80;78.90;;;;;;5033962;28;20057;-82
2021/06/03 06:50:45;;;;;;;8.70;5.15;;;19.80;78.90;;;;;;5035170;28;20456;-82
2021/06/03 06:53:13;;;;;;;8.27;5.28;;;19.90;79.00;;;;;;5035259;28;20119;-83
2021/06/03 06:55:39;;;;;;;8.85;5.20;;;19.90;79.00;;;;;;5019036;28;20049;-84
2021/06/03 06:58:05;;;;;;;7.47;5.25;;;19.90;79.00;;;;;;5033904;28;20115;-82
2021/06/03 07:00:36;;;;;;;8.57;5.47;;;20.00;78.80;;;;;;5034683;28;20091;-81
2021/06/03 07:03:06;;;;;;;8.10;5.20;;;20.00;78.50;;;;;;5031060;28;20084;-82
2021/06/03 07:05:33;;;;;;;9.52;5.47;;;20.10;78.70;;;;;;5034999;28;20072;-81
2021/06/03 07:07:59;;;;;;;9.02;6.00;;;20.10;78.80;;;;;;5034503;28;20404;-81
2021/06/03 07:10:24;;;;;;;7.82;5.47;;;20.20;78.80;;;;;;5034476;28;20054;-81
2021/06/03 07:12:51;;;;;;;8.75;5.72;;;20.20;79.50;;;;;;5034562;28;20493;-81
2021/06/03 07:15:18;;;;;;;7.35;5.25;;;20.30;78.80;;;;;;5034258;28;20042;-82
2021/06/03 07:17:44;;;;;;;8.77;5.60;;;20.30;78.70;;;;;;5034029;28;20061;-82
2021/06/03 07:20:13;;;;;;;12.90;6.30;;;20.30;78.60;;;;;;5034026;28;20037;-81
2021/06/03 07:22:40;;;;;;;9.07;5.70;;;20.40;78.50;;;;;;5033762;28;20061;-82
2021/06/03 07:25:07;;;;;;;8.52;5.50;;;20.40;78.60;;;;;;5033445;28;20405;-80
2021/06/03 07:27:35;;;;;;;8.82;6.50;;;20.50;78.80;;;;;;5034672;28;20049;-81
2021/06/03 07:30:01;;;;;;;8.65;5.85;;;20.50;78.20;;;;;;5032895;28;20069;-81
2021/06/03 07:32:30;;;;;;;9.02;6.07;;;20.50;78.20;;;;;;5034227;28;20064;-81
2021/06/03 07:34:56;;;;;;;10.50;6.20;;;20.60;78.40;;;;;;5034314;28;20049;-81
2021/06/03 07:37:24;;;;;;;11.07;6.55;;;20.70;78.50;;;;;;5023480;28;20077;-81
2021/06/03 07:39:50;;;;;;;10.77;6.80;;;20.70;78.60;;;;;;5017101;28;20073;-80
2021/06/03 07:42:16;;;;;;;12.52;6.72;;;20.80;78.40;;;;;;5030706;28;20511;-82
2021/06/03 07:44:42;;;;;;;8.43;6.13;;;20.80;78.20;;;;;;5033537;28;20501;-82
2021/06/03 07:47:08;;;;;;;9.63;6.30;;;20.90;78.20;;;;;;5034454;28;20140;-82
2021/06/03 07:49:40;;;;;;;9.73;6.70;;;21.00;78.00;;;;;;5033770;28;20104;-81
2021/06/03 07:52:07;;;;;;;13.50;7.68;;;21.00;78.00;;;;;;5032727;28;20559;-82
2021/06/03 07:54:36;;;;;;;10.68;7.32;;;21.10;77.80;;;;;;5033993;28;20061;-83
2021/06/03 07:57:03;;;;;;;10.85;7.53;;;21.10;77.80;;;;;;5033905;28;20050;-82
2021/06/03 07:59:29;;;;;;;9.52;7.22;;;21.20;77.70;;;;;;5033522;28;20069;-82
2021/06/03 08:01:55;;;;;;;10.48;6.47;;;21.30;77.60;;;;;;5034046;28;20076;-82
2021/06/03 08:04:21;;;;;;;12.07;7.82;;;21.30;77.70;;;;;;5032771;28;20053;-82
2021/06/03 08:06:48;;;;;;;11.10;8.30;;;21.40;77.80;;;;;;5033949;28;20048;-84
2021/06/03 08:09:15;;;;;;;10.55;8.20;;;21.40;78.20;;;;;;5033096;28;20477;-86
2021/06/03 08:11:44;;;;;;;12.82;8.80;;;21.50;78.30;;;;;;5033572;28;20061;-89
2021/06/03 08:14:11;;;;;;;14.60;8.73;;;21.60;78.70;;;;;;5033550;28;20051;-82
2021/06/03 08:16:57;;;;;;;12.70;8.35;;;21.60;78.70;;;;;;5018807;28;20389;-84
2021/06/03 08:19:24;;;;;;;10.65;8.20;;;21.60;78.20;;;;;;5032644;28;20546;-87
2021/06/03 08:21:50;;;;;;;11.55;8.95;;;21.70;77.70;;;;;;5033440;28;20160;-87
2021/06/03 08:24:16;;;;;;;12.93;8.70;;;21.80;77.70;;;;;;5033712;28;20053;-86
2021/06/03 08:26:41;;;;;;;12.38;9.05;;;21.80;77.70;;;;;;5033242;28;20053;-87
2021/06/03 08:29:07;;;;;;;11.05;9.00;;;21.80;77.70;;;;;;5031386;28;20049;-83
2021/06/03 08:31:37;;;;;;;11.48;8.52;;;21.90;77.30;;;;;;5032421;28;20492;-85
2021/06/03 08:34:22;;;;;;;12.02;8.32;;;21.90;77.10;;;;;;5012684;28;20128;-85
2021/06/03 08:37:08;;;;;;;16.00;8.25;;;22.00;77.20;;;;;;5018410;28;20057;-83
2021/06/03 08:39:34;;;;;;;11.10;8.38;;;22.00;77.00;;;;;;5032512;28;20053;-84
2021/06/03 08:41:59;;;;;;;11.05;9.32;;;22.10;77.20;;;;;;5033126;28;20053;-83
2021/06/03 08:44:30;;;;;;;13.15;8.32;;;22.20;77.00;;;;;;5033103;28;20058;-84
2021/06/03 08:46:57;;;;;;;15.05;8.38;;;22.20;76.80;;;;;;5032308;28;20054;-84
2021/06/03 08:49:23;;;;;;;11.80;9.00;;;22.30;76.90;;;;;;5033370;28;20185;-84
2021/06/03 08:51:51;;;;;;;13.82;8.65;;;22.40;76.60;;;;;;5033341;28;20132;-83
2021/06/03 08:54:17;;;;;;;12.18;8.32;;;22.50;76.40;;;;;;5032571;28;20129;-83
2021/06/03 08:56:43;;;;;;;9.73;8.40;;;22.60;76.30;;;;;;5032642;28;20045;-84
2021/06/03 08:59:09;;;;;;;11.05;7.95;;;22.70;76.20;;;;;;5032581;28;20041;-84
2021/06/03 09:01:35;;;;;;;12.95;8.90;;;22.80;75.90;;;;;;5032556;28;20551;-84
2021/06/03 09:04:01;;;;;;;10.27;7.85;;;22.80;75.70;;;;;;5032007;28;20087;-83
2021/06/03 09:06:27;;;;;;;12.43;8.10;;;22.90;75.20;;;;;;5032645;28;20037;-84
2021/06/03 09:08:58;;;;;;;13.88;8.32;;;23.00;74.90;;;;;;5032030;28;20045;-84
2021/06/03 09:11:26;;;;;;;12.13;7.47;;;23.10;74.60;;;;;;5019961;28;20413;-84
2021/06/03 09:13:55;;;;;;;10.57;7.93;;;23.20;74.60;;;;;;5024970;28;20056;-84
2021/06/03 09:16:27;;;;;;;12.88;7.88;;;23.30;74.70;;;;;;5030303;28;20100;-86
2021/06/03 09:19:13;;;;;;;9.73;7.03;;;23.30;74.80;;;;;;5032328;28;20045;-84
2021/06/03 09:21:48;;;;;;;10.25;7.35;;;23.40;74.30;;;;;;5028956;28;20064;-84
2021/06/03 09:24:16;;;;;;;10.18;7.65;;;23.50;74.40;;;;;;5031293;28;20077;-85
2021/06/03 09:26:53;;;;;;;9.52;6.35;;;23.60;73.60;;;;;;5031968;28;20045;-85
2021/06/03 09:29:24;;;;;;;10.93;7.20;;;23.70;73.00;;;;;;5030563;28;20051;-83
2021/06/03 09:31:51;;;;;;;9.23;6.47;;;23.70;73.00;;;;;;5023346;28;20100;-84
2021/06/03 09:34:18;;;;;;;10.40;6.60;;;23.90;72.30;;;;;;5028181;28;20484;-85
2021/06/03 09:36:55;;;;;;;9.20;6.80;;;23.90;71.80;;;;;;5031745;28;20057;-84
2021/06/03 09:39:25;;;;;;;7.78;6.00;;;23.90;71.70;;;;;;5032550;28;20071;-86
2021/06/03 09:42:05;;;;;;;9.95;7.10;;;24.00;71.30;;;;;;5032460;28;20049;-85
2021/06/03 09:44:46;;;;;;;13.55;6.93;;;24.00;71.30;;;;;;5031759;28;20103;-85
2021/06/03 09:47:15;;;;;;;8.82;6.03;;;24.10;71.10;;;;;;5032362;28;20056;-85
2021/06/03 09:49:51;;;;;;;9.95;6.43;;;24.20;70.60;;;;;;5032432;28;20481;-84
2021/06/03 09:52:18;;;;;;;;;;;24.20;70.10;;;;;;5032868;28;20114;-83
2021/06/03 09:54:53;;;;;;;9.85;6.80;;;24.20;72.60;;;;;;5015453;28;19967;-93
2021/06/03 09:57:28;;;;;;;9.80;6.57;;;24.30;71.00;;;;;;5033706;28;20045;-95
2021/06/03 10:00:10;;;;;;;7.18;5.95;;;24.40;71.00;;;;;;5034425;28;20830;-95
2021/06/03 10:02:36;;;;;;;9.30;6.18;;;24.50;70.80;;;;;;5016274;28;20045;-96
2021/06/03 10:05:14;;;;;;;10.90;7.15;;;24.60;70.70;;;;;;5033365;28;20042;-95
2021/06/03 10:07:56;;;;;;;8.77;6.55;;;24.70;70.20;;;;;;5033853;28;20056;-91
2021/06/03 10:10:22;;;;;;;9.35;6.45;;;24.80;70.70;;;;;;5030773;28;20060;-92
2021/06/03 10:12:49;;;;;;;10.88;6.25;;;24.90;70.40;;;;;;5032276;28;20071;-89
2021/06/03 10:15:37;;;;;;;9.68;6.22;;;24.90;69.70;;;;;;5032022;28;20049;-90
2021/06/03 10:18:10;;;;;;;8.93;5.72;;;25.00;70.90;;;;;;5032865;28;20045;-88
2021/06/03 10:20:42;;;;;;;8.05;5.30;;;25.20;71.00;;;;;;5031823;28;20111;-90
2021/06/03 10:23:19;;;;;;;10.82;5.22;;;25.30;69.90;;;;;;5012358;28;20060;-86
2021/06/03 10:26:06;;;;;;;9.05;5.20;;;25.50;68.90;;;;;;5006231;28;20074;-86
2021/06/03 10:28:32;;;;;;;7.10;5.00;;;25.50;68.90;;;;;;5016475;28;20085;-89
2021/06/03 10:31:05;;;;;;;8.95;5.20;;;25.60;68.60;;;;;;5033752;28;20071;-88
2021/06/03 10:33:32;;;;;;;11.00;4.93;;;25.70;67.80;;;;;;5030042;28;20073;-93
2021/06/03 10:36:04;;;;;;;9.55;5.13;;;25.80;66.90;;;;;;5029538;28;20053;-89
2021/06/03 10:38:31;;;;;;;9.57;3.55;;;25.80;67.40;;;;;;5037172;28;20118;-93
2021/06/03 10:40:59;;;;;;;7.85;3.80;;;25.90;66.80;;;;;;5024425;28;20052;-92
2021/06/03 10:43:31;;;;;;;8.00;3.42;;;26.00;66.60;;;;;;5019308;28;20050;-91
2021/06/03 10:45:56;;;;;;;10.05;3.55;;;26.10;66.10;;;;;;5033468;28;20051;-88
2021/06/03 10:48:28;;;;;;;7.60;3.75;;;26.20;65.80;;;;;;5028573;28;20049;-89
2021/06/03 10:50:56;;;;;;;8.82;4.28;;;26.30;65.90;;;;;;5018486;28;20064;-89
2021/06/03 10:53:24;;;;;;;5.82;3.67;;;26.40;65.50;;;;;;5034420;28;20076;-90
2021/06/03 10:55:53;;;;;;;8.93;3.70;;;26.40;65.20;;;;;;5035624;28;20100;-90
2021/06/03 10:58:36;;;;;;;8.75;3.80;;;26.60;65.10;;;;;;5028222;28;20053;-86
2021/06/03 11:01:05;;;;;;;6.55;3.88;;;26.60;65.30;;;;;;5023081;28;20080;-86
2021/06/03 11:03:48;;;;;;;10.35;3.65;;;26.70;64.40;;;;;;5034184;28;20377;-87
2021/06/03 11:06:22;;;;;;;8.23;4.00;;;26.70;65.00;;;;;;5035401;28;20434;-91
2021/06/03 11:09:01;;;;;;;6.38;3.97;;;26.80;64.80;;;;;;5034340;28;20683;-91
2021/06/03 11:11:47;;;;;;;7.28;3.80;;;26.90;64.70;;;;;;5034482;28;20049;-89
2021/06/03 11:14:18;;;;;;;7.00;4.20;;;26.90;63.60;;;;;;5034407;28;20172;-93
2021/06/03 11:16:47;;;;;;;7.78;4.72;;;26.90;64.10;;;;;;5033923;28;20037;-86
2021/06/03 11:19:14;;;;;;;9.48;4.03;;;26.90;64.00;;;;;;5034060;28;20059;-84
2021/06/03 11:21:43;;;;;;;8.07;3.83;;;26.90;64.40;;;;;;5023206;28;20142;-87
2021/06/03 11:24:11;;;;;;;8.00;3.88;;;27.00;63.80;;;;;;5014483;28;20226;-84
2021/06/03 11:26:46;;;;;;;7.18;4.40;;;27.00;63.60;;;;;;5015900;28;20046;-92
2021/06/03 11:29:29;;;;;;;7.97;4.30;;;27.00;62.80;;;;;;5014228;28;20533;-92
2021/06/03 11:32:04;;;;;;;8.43;4.18;;;27.00;63.60;;;;;;5009522;28;20045;-89
2021/06/03 11:34:39;;;;;;;9.88;4.00;;;27.10;62.40;;;;;;5013855;28;20056;-93
2021/06/03 11:37:14;;;;;;;8.23;3.60;;;27.10;62.30;;;;;;5012929;28;20563;-89
2021/06/03 11:39:43;;;;;;;7.30;3.88;;;27.10;63.10;;;;;;5013764;28;20074;-90
2021/06/03 11:42:15;;;;;;;5.85;3.22;;;27.10;62.30;;;;;;5014920;28;20069;-90
2021/06/03 11:45:02;;;;;;;5.95;3.00;;;27.20;60.60;;;;;;5014095;28;20060;-88
2021/06/03 11:47:48;;;;;;;5.60;2.97;;;27.20;60.40;;;;;;5015158;28;20061;-88
2021/06/03 11:50:16;;;;;;;5.28;2.90;;;27.20;59.90;;;;;;5013653;28;20484;-88
2021/06/03 11:53:00;;;;;;;5.80;2.88;;;27.30;60.50;;;;;;5023429;28;20053;-89
2021/06/03 11:55:27;;;;;;;6.00;3.10;;;27.30;59.20;;;;;;5014952;28;20054;-88
2021/06/03 11:58:15;;;;;;;6.75;2.75;;;27.40;59.10;;;;;;5011908;28;20077;-89
2021/06/03 12:00:49;;;;;;;5.60;2.40;;;27.30;58.80;;;;;;5011720;28;20100;-90
2021/06/03 12:03:35;;;;;;;6.30;2.58;;;27.40;58.60;;;;;;4996346;28;20418;-91
2021/06/03 12:06:05;;;;;;;6.45;2.50;;;27.50;58.60;;;;;;5014474;28;20076;-90
2021/06/03 12:08:46;;;;;;;4.22;2.20;;;27.50;57.20;;;;;;5011180;28;20054;-87
2021/06/03 12:11:36;;;;;;;5.85;2.80;;;27.60;57.80;;;;;;5004842;28;20846;-92
2021/06/03 12:14:06;;;;;;;6.55;2.60;;;27.60;58.10;;;;;;4992930;28;20077;-91
2021/06/03 12:16:36;;;;;;;6.63;3.00;;;27.70;58.10;;;;;;5011308;28;20185;-95
2021/06/03 12:19:14;;;;;;;3.45;2.13;;;27.70;57.60;;;;;;5014139;28;20049;-92
2021/06/03 12:21:43;;;;;;;6.13;2.80;;;27.70;57.00;;;;;;5011250;28;20054;-89
2021/06/03 12:24:09;;;;;;;5.55;2.50;;;27.70;57.00;;;;;;5014041;28;20409;-91
2021/06/03 12:26:39;;;;;;;3.75;2.13;;;27.80;57.20;;;;;;5013694;28;20057;-89
2021/06/03 12:29:06;;;;;;;5.72;3.10;;;27.80;57.50;;;;;;5013767;28;20057;-85
2021/06/03 12:31:32;;;;;;;8.20;2.35;;;27.90;57.00;;;;;;5009715;28;20077;-85
2021/06/03 12:33:58;;;;;;;5.25;2.70;;;27.90;57.00;;;;;;5012975;28;20137;-88
2021/06/03 12:36:26;;;;;;;5.60;2.20;;;28.00;57.30;;;;;;5014853;28;20147;-87
2021/06/03 12:38:56;;;;;;;4.95;2.25;;;28.00;57.10;;;;;;5013970;28;20157;-87
2021/06/03 12:41:29;;;;;;;5.97;2.33;;;28.10;58.10;;;;;;5015161;28;20116;-87
2021/06/03 12:44:01;;;;;;;5.57;2.10;;;28.10;57.20;;;;;;5022023;28;20049;-87
2021/06/03 12:46:54;;;;;;;4.82;2.30;;;28.10;56.30;;;;;;5023405;28;20136;-87
2021/06/03 12:49:21;;;;;;;5.70;2.42;;;28.10;56.90;;;;;;5011470;28;20062;-86
2021/06/03 12:51:56;;;;;;;6.85;2.58;;;28.10;57.20;;;;;;5015282;28;20053;-87
2021/06/03 12:54:47;;;;;;;4.97;2.60;;;28.20;56.10;;;;;;5013239;28;20056;-88
2021/06/03 12:57:17;;;;;;;4.85;2.28;;;28.20;57.40;;;;;;5014883;28;20096;-89